Albuquerque, NM

12:41 PM MST on February 01, 2015 (GMT -0700)
Alameda and the River | Change Station
CLOSE
Current Station
Personal Weather Station
Location: Albuquerque, NM
Elevation: 4999 ft
Nearby Weather Stations

Elev 4999 ft 35.19 °N, 106.65 °W | Updated 1 minute ago

Partly Cloudy
Partly Cloudy
49.2 °F
Feels Like 49 °F
N
3.0
Wind Variable Wind from NNE
Gusts 3.0 mph

Today
High -- | Low -- °F
--% Chance of Precip.
Yesterday
High -- | Low -- °F
Precip. -- in
7:06 AM 5:35 PM
Waxing Gibbous, 96% visible
Pressure 30.11 in
Visibility 10.0 miles
Clouds Scattered Clouds 4500 ft
Windchill 49 °F
Dew Point 35 °F
Humidity 57%
Rainfall 0.01 in
Snow Depth Not available.
UV 4 out of 12
Pollen .50 out of 12
Air Quality Not available.
Flu Activity Not available.
METAR KABQ 011852Z 31006KT 10SM SCT045 07/M01 A3015 RMK AO2 SLP196 MTN TOPS OBSC NE AND SE T00721006

More Conditions Fewer Conditions

Pressure 30.11 in
Visibility 10.0 miles
Clouds Scattered Clouds 4500 ft
Windchill 49 °F
Dew Point 35 °F
Humidity 57%
Rainfall 0.01 in
Snow Depth Not available.
UV 4 out of 12
Pollen .50 out of 12
Air Quality Not available.
Flu Activity Not available.
METAR KABQ 011852Z 31006KT 10SM SCT045 07/M01 A3015 RMK AO2 SLP196 MTN TOPS OBSC NE AND SE T00721006

More Conditions Fewer Conditions

10-Day Weather Forecast

Almanac

Astronomy

Feb. 01, 2015 Rise Set
Actual Time
Civil Twilight
Nautical Twilight
Astronomical Twilight
Moon
Length of Visible Light
Length of Day
Tomorrow will be .
, % of the Moon is Illuminated

Today's Extremes

State Highs State Lows

Community

WunderPhotos

Upload Photos

1,792,471 photos uploaded!

WunderBlogs® & News

Nearby

Air Quality

  Air Quality AQ Index Pollutant
Not available.

Snow Depth

Station Depth Elevation

Earthquake Activity

City Distance Mag. Time & Date
Minimum magnitude displayed is 2.5.

Coastal Water Temperatures

Place Temperature

Nearby Weather Stations